Time;durP1;ratioP1;P1;durP2;ratioP2;P2;SDS_P1;SDS_P2;PMS_P1;PMS_P2;Temp;Humidity;BMP_temperature;BMP_pressure;BME280_temperature;BME280_humidity;BME280_pressure;Samples;Min_cycle;Max_cycle;Signal;HPM_P1;HPM_P2
2022/03/04 00:00:09;;;;;;;25.25;15.27;;;;;;;-2.95;82.46;102105.31;5055641;28;20543;-84
2022/03/04 00:02:35;;;;;;;26.63;15.05;;;;;;;-2.97;82.63;102106.22;5072927;28;20032;-83
2022/03/04 00:05:01;;;;;;;26.45;15.82;;;;;;;-3.01;82.44;102108.00;5075223;28;20074;-84
2022/03/04 00:07:28;;;;;;;25.70;15.77;;;;;;;-3.04;82.72;102118.47;5074022;28;20028;-84
2022/03/04 00:09:54;;;;;;;26.05;15.35;;;;;;;-3.07;82.70;102108.94;5059618;28;20032;-83
2022/03/04 00:12:19;;;;;;;25.85;15.73;;;;;;;-3.10;82.43;102110.75;5076864;28;20082;-84
2022/03/04 00:14:45;;;;;;;22.48;14.48;;;;;;;-3.14;82.59;102109.03;5076546;28;20064;-83
2022/03/04 00:17:10;;;;;;;24.95;14.88;;;;;;;-3.17;82.39;102115.16;5076729;28;20100;-84
2022/03/04 00:19:36;;;;;;;25.90;15.23;;;;;;;-3.21;82.62;102114.34;5076626;28;20372;-85
2022/03/04 00:22:01;;;;;;;26.15;15.23;;;;;;;-3.24;82.31;102113.50;5076486;28;20431;-84
2022/03/04 00:24:27;;;;;;;25.00;14.82;;;;;;;-3.26;82.59;102113.50;5076408;28;20132;-85
2022/03/04 00:26:52;;;;;;;24.85;15.48;;;;;;;-3.29;82.66;102113.56;5041837;28;20071;-85
2022/03/04 00:29:18;;;;;;;24.05;15.55;;;;;;;-3.32;82.75;102113.59;5058248;28;20033;-86
2022/03/04 00:31:44;;;;;;;28.60;15.43;;;;;;;-3.35;82.89;102107.59;5076758;28;20035;-85
2022/03/04 00:34:11;;;;;;;28.33;15.75;;;;;;;-3.37;82.92;102112.81;5076286;28;20419;-79
2022/03/04 00:36:38;;;;;;;25.65;15.73;;;;;;;-3.40;83.22;102110.25;5076052;28;20483;-83
2022/03/04 00:39:07;;;;;;;27.60;15.73;;;;;;;-3.42;83.22;102107.66;5076642;28;20448;-85
2022/03/04 00:41:33;;;;;;;27.48;15.55;;;;;;;-3.41;83.59;102111.09;5075806;28;20360;-85
2022/03/04 00:43:58;;;;;;;26.67;15.60;;;;;;;-3.43;83.45;102107.69;5075718;28;20143;-85
2022/03/04 00:46:24;;;;;;;28.15;15.93;;;;;;;-3.44;83.62;102117.19;5075881;28;20072;-85
2022/03/04 00:48:49;;;;;;;24.60;15.60;;;;;;;-3.45;83.93;102112.03;5075917;28;20033;-85
2022/03/04 00:51:15;;;;;;;22.23;14.25;;;;;;;-3.48;83.78;102118.09;5075924;28;20540;-85
2022/03/04 00:53:41;;;;;;;23.45;15.27;;;;;;;-3.50;83.19;102114.69;5075674;28;20039;-84
2022/03/04 00:56:08;;;;;;;25.85;15.00;;;;;;;-3.52;83.24;102123.38;5075974;28;20464;-85
2022/03/04 00:58:34;;;;;;;25.65;15.57;;;;;;;-3.57;83.42;102126.91;5076293;28;20047;-85
2022/03/04 01:01:00;;;;;;;26.58;15.65;;;;;;;-3.60;83.36;102120.84;5075878;28;20108;-84
2022/03/04 01:03:25;;;;;;;26.55;15.50;;;;;;;-3.63;83.36;102126.94;5075697;28;20060;-84
2022/03/04 01:05:51;;;;;;;26.15;15.77;;;;;;;-3.64;83.75;102125.25;5076117;28;20055;-85
2022/03/04 01:08:16;;;;;;;27.05;16.15;;;;;;;-3.66;84.06;102129.59;5075408;28;20029;-85
2022/03/04 01:10:42;;;;;;;26.65;16.08;;;;;;;-3.67;83.66;102132.22;5057330;28;20036;-85
2022/03/04 01:13:07;;;;;;;31.02;16.05;;;;;;;-3.70;83.85;102132.25;5075342;28;20487;-85
2022/03/04 01:15:32;;;;;;;25.27;15.02;;;;;;;-3.72;83.61;102120.13;5075972;28;20048;-85
2022/03/04 01:17:58;;;;;;;27.55;15.95;;;;;;;-3.75;83.90;102119.28;5057901;28;20119;-85
2022/03/04 01:20:23;;;;;;;26.67;16.08;;;;;;;-3.77;84.57;102126.25;5075144;28;20037;-85
2022/03/04 01:22:49;;;;;;;27.45;15.52;;;;;;;-3.78;84.64;102117.56;5075438;28;20032;-86
2022/03/04 01:25:14;;;;;;;25.20;14.70;;;;;;;-3.81;84.51;102115.00;5075375;28;20059;-79
2022/03/04 01:27:40;;;;;;;26.55;15.43;;;;;;;-3.83;84.20;102118.50;5075676;28;20129;-86
2022/03/04 01:30:07;;;;;;;22.58;14.77;;;;;;;-3.85;83.98;102117.66;5075466;28;20066;-85
2022/03/04 01:32:33;;;;;;;28.58;15.77;;;;;;;-3.91;84.27;102116.84;5075475;28;20519;-85
2022/03/04 01:34:58;;;;;;;24.08;15.02;;;;;;;-3.93;84.51;102120.34;5075433;28;20033;-84
2022/03/04 01:37:24;;;;;;;25.40;14.88;;;;;;;-3.95;84.19;102120.34;5057689;28;20383;-84
2022/03/04 01:39:50;;;;;;;27.33;15.93;;;;;;;-3.96;84.36;102118.59;5075487;28;20032;-85
2022/03/04 01:42:15;;;;;;;28.70;16.48;;;;;;;-3.97;84.92;102118.63;5075574;28;20025;-85
2022/03/04 01:44:41;;;;;;;29.48;15.45;;;;;;;-3.99;85.21;102117.78;5075303;28;20048;-86
2022/03/04 01:47:07;;;;;;;26.75;16.38;;;;;;;-4.02;84.97;102107.44;5058186;28;20040;-86
2022/03/04 01:49:33;;;;;;;28.65;16.65;;;;;;;-4.04;85.13;102107.44;5076172;28;20036;-86
2022/03/04 01:51:58;;;;;;;27.92;16.25;;;;;;;-4.05;85.56;102105.72;5075209;28;20056;-85
2022/03/04 01:54:24;;;;;;;31.42;16.88;;;;;;;-4.09;85.31;102107.47;5075051;28;20028;-84
2022/03/04 01:56:50;;;;;;;28.58;16.13;;;;;;;-4.09;85.56;102106.59;5075591;28;20082;-85
2022/03/04 01:59:16;;;;;;;27.17;15.80;;;;;;;-4.09;85.23;102111.81;5076267;28;20130;-85
2022/03/04 02:01:41;;;;;;;33.92;15.88;;;;;;;-4.07;85.39;102102.28;5079909;28;20033;-84
2022/03/04 02:04:07;;;;;;;25.65;15.70;;;;;;;-4.06;85.97;102109.19;5078924;28;20095;-85
2022/03/04 02:06:32;;;;;;;27.40;15.98;;;;;;;-4.06;86.35;102101.41;5080812;28;20105;-86
2022/03/04 02:08:57;;;;;;;30.30;16.35;;;;;;;-4.05;87.04;102097.06;5060843;28;20113;-85
2022/03/04 02:11:23;;;;;;;25.23;15.85;;;;;;;-4.04;86.43;102098.78;5077816;28;20059;-84
2022/03/04 02:13:49;;;;;;;28.88;15.18;;;;;;;-4.07;86.41;102095.31;5078669;28;20482;-85
2022/03/04 02:16:37;;;;;;;25.23;15.65;;;;;;;-4.10;86.48;102094.50;5060483;28;20032;-85
2022/03/04 02:19:03;;;;;;;31.50;17.30;;;;;;;-4.13;86.41;102092.78;5078010;28;20039;-84
2022/03/04 02:21:31;;;;;;;28.83;16.67;;;;;;;-4.14;87.01;102098.84;5057922;28;20025;-86
2022/03/04 02:23:57;;;;;;;29.23;15.98;;;;;;;-4.15;87.43;102101.47;5075791;28;20090;-86
2022/03/04 02:26:22;;;;;;;28.50;15.93;;;;;;;-4.19;87.22;102090.25;5075963;28;20062;-79
2022/03/04 02:28:48;;;;;;;26.63;16.80;;;;;;;-4.21;87.63;102094.59;5075652;28;20028;-86
2022/03/04 02:31:17;;;;;;;29.33;15.68;;;;;;;-4.22;87.84;102092.00;5077718;28;20044;-88
2022/03/04 02:33:44;;;;;;;29.55;17.45;;;;;;;-4.23;88.11;102090.28;5078154;28;20032;-85
2022/03/04 02:36:09;;;;;;;31.67;16.55;;;;;;;-4.21;88.53;102096.31;5074643;28;20120;-84
2022/03/04 02:38:34;;;;;;;29.27;15.48;;;;;;;-4.21;88.68;102097.22;5074811;28;20036;-85
2022/03/04 02:41:00;;;;;;;26.60;16.15;;;;;;;-4.23;88.25;102095.50;5056592;28;20086;-84
2022/03/04 02:43:25;;;;;;;27.45;16.20;;;;;;;-4.26;88.20;102089.41;5074836;28;20035;-79
2022/03/04 02:45:52;;;;;;;35.60;17.42;;;;;;;-4.25;88.35;102079.91;5074289;28;20432;-86
2022/03/04 02:48:18;;;;;;;31.50;18.00;;;;;;;-4.17;89.58;102079.84;5074718;28;20056;-86
2022/03/04 02:50:43;;;;;;;31.48;17.17;;;;;;;-4.18;89.16;102084.19;5076133;28;20091;-86
2022/03/04 02:53:09;;;;;;;30.67;15.73;;;;;;;-4.18;88.64;102084.19;5075026;28;20063;-86
2022/03/04 02:55:34;;;;;;;34.28;16.95;;;;;;;-4.18;88.10;102085.91;5073501;28;20396;-85
2022/03/04 02:58:00;;;;;;;31.40;16.75;;;;;;;-4.20;87.92;102090.25;5073921;28;20036;-85
2022/03/04 03:00:25;;;;;;;27.05;15.98;;;;;;;-4.23;88.11;102088.53;5074173;28;20037;-82
2022/03/04 03:02:51;;;;;;;26.52;14.88;;;;;;;-4.25;88.24;102093.75;5056117;28;20028;-85
2022/03/04 03:05:17;;;;;;;27.70;15.98;;;;;;;-4.27;88.01;102081.63;5074324;28;20051;-85
2022/03/04 03:07:42;;;;;;;32.10;16.70;;;;;;;-4.28;87.80;102077.34;5074299;28;20028;-86
2022/03/04 03:10:09;;;;;;;27.80;15.45;;;;;;;-4.31;87.78;102078.22;5073738;28;20035;-86
2022/03/04 03:12:35;;;;;;;32.75;16.30;;;;;;;-4.33;87.85;102082.56;5055800;28;20036;-86
2022/03/04 03:15:01;;;;;;;31.88;16.98;;;;;;;-4.33;87.44;102084.28;5073612;28;20473;-85
2022/03/04 03:17:26;;;;;;;33.47;16.70;;;;;;;-4.32;88.20;102083.44;5073780;28;20119;-86
2022/03/04 03:19:52;;;;;;;31.05;16.75;;;;;;;-4.34;88.05;102082.59;5056367;28;20120;-86
2022/03/04 03:22:18;;;;;;;32.75;15.80;;;;;;;-4.36;87.68;102081.72;5056033;28;20502;-86
2022/03/04 03:24:44;;;;;;;32.00;18.23;;;;;;;-4.39;87.75;102077.41;5073760;28;20144;-87
2022/03/04 03:27:10;;;;;;;27.88;15.57;;;;;;;-4.42;87.86;102080.03;5056379;28;20033;-85
2022/03/04 03:29:36;;;;;;;37.63;18.38;;;;;;;-4.46;87.60;102079.22;5073653;28;20029;-86
2022/03/04 03:32:01;;;;;;;30.83;16.23;;;;;;;-4.47;87.79;102079.22;5055587;28;20435;-85
2022/03/04 03:34:26;;;;;;;33.58;17.33;;;;;;;-4.50;87.73;102079.25;5055708;28;20032;-86
2022/03/04 03:36:52;;;;;;;34.10;18.20;;;;;;;-4.51;87.52;102083.59;5055320;28;20028;-86
2022/03/04 03:39:17;;;;;;;36.25;17.15;;;;;;;-4.52;87.22;102087.06;5073148;28;20037;-86
2022/03/04 03:41:43;;;;;;;27.38;16.42;;;;;;;-4.53;87.44;102087.06;5072643;28;20036;-86
2022/03/04 03:44:08;;;;;;;28.20;16.67;;;;;;;-4.55;86.90;102079.28;5073343;28;20092;-86
2022/03/04 03:46:34;;;;;;;30.92;18.02;;;;;;;-4.52;87.23;102086.16;5073375;28;20064;-79
2022/03/04 03:48:59;;;;;;;28.35;16.48;;;;;;;-4.52;87.42;102078.38;5074399;28;20085;-84
2022/03/04 03:51:24;;;;;;;29.88;16.88;;;;;;;-4.52;87.55;102075.78;5074167;28;20113;-86
2022/03/04 03:53:50;;;;;;;30.10;16.50;;;;;;;-4.54;87.61;102078.38;5056285;28;20348;-86
2022/03/04 03:56:15;;;;;;;34.05;18.00;;;;;;;-4.54;87.76;102088.78;5039579;28;20032;-86
2022/03/04 03:58:41;;;;;;;32.47;16.75;;;;;;;-4.55;87.77;102081.88;5074845;28;20035;-88
2022/03/04 04:01:06;;;;;;;32.78;17.15;;;;;;;-4.56;88.34;102089.69;5077641;28;20071;-87
2022/03/04 04:03:32;;;;;;;34.53;18.08;;;;;;;-4.58;87.78;102088.81;5080473;28;20063;-85
2022/03/04 04:05:57;;;;;;;30.83;16.83;;;;;;;-4.59;88.06;102092.31;5079424;28;20029;-88
2022/03/04 04:08:23;;;;;;;36.50;16.85;;;;;;;-4.62;87.98;102088.00;5073798;28;20059;-88
2022/03/04 04:10:49;;;;;;;33.80;17.92;;;;;;;-4.62;87.74;102095.78;5073637;28;20085;-88
2022/03/04 04:13:14;;;;;;;33.63;17.35;;;;;;;-4.64;88.00;102101.00;5074764;28;20037;-88
2022/03/04 04:15:40;;;;;;;34.33;18.27;;;;;;;-4.65;88.20;102095.81;5074216;28;20101;-87
2022/03/04 04:18:05;;;;;;;34.45;18.15;;;;;;;-4.66;88.60;102100.16;5074608;28;20044;-88
2022/03/04 04:20:31;;;;;;;34.42;17.73;;;;;;;-4.66;88.32;102104.47;5074067;28;20538;-88
2022/03/04 04:22:56;;;;;;;30.33;17.23;;;;;;;-4.69;88.32;102107.09;5056431;28;20099;-88
2022/03/04 04:25:21;;;;;;;31.58;17.02;;;;;;;-4.70;88.47;102110.53;5073517;28;20056;-87
2022/03/04 04:27:47;;;;;;;30.52;17.30;;;;;;;-4.74;88.40;102104.53;5073067;28;20479;-87
2022/03/04 04:30:13;;;;;;;33.83;17.92;;;;;;;-4.75;88.63;102105.38;5073447;28;20040;-89
2022/03/04 04:32:38;;;;;;;34.28;18.13;;;;;;;-4.75;88.96;102114.91;5055262;28;20378;-80
2022/03/04 04:35:04;;;;;;;31.55;16.83;;;;;;;-4.75;89.50;102117.53;5054607;28;20040;-87
2022/03/04 04:37:30;;;;;;;37.80;18.70;;;;;;;-4.77;90.14;102109.75;5074079;28;20036;-87
2022/03/04 04:39:55;;;;;;;36.85;19.42;;;;;;;-4.78;90.10;102114.09;5074762;28;20530;-87
2022/03/04 04:42:22;;;;;;;36.42;17.88;;;;;;;-4.77;90.58;102109.75;5072926;28;20028;-88
2022/03/04 04:44:47;;;;;;;36.80;18.65;;;;;;;-4.77;89.95;102117.53;5054824;28;20028;-89
2022/03/04 04:47:12;;;;;;;36.92;18.58;;;;;;;-4.77;90.60;102109.75;5072908;28;20036;-88
2022/03/04 04:49:38;;;;;;;34.05;18.58;;;;;;;-4.80;90.09;102107.16;5054869;28;20036;-85
2022/03/04 04:52:08;;;;;;;31.67;16.70;;;;;;;-4.83;89.80;102105.44;5072851;28;20124;-88
2022/03/04 04:54:35;;;;;;;36.55;17.88;;;;;;;-4.84;90.02;102111.50;5074924;28;20094;-85
2022/03/04 04:57:01;;;;;;;38.38;18.65;;;;;;;-4.82;90.80;102111.47;5076047;28;20427;-88
2022/03/04 04:59:27;;;;;;;36.42;18.27;;;;;;;-4.82;90.74;102106.28;5076325;28;20028;-86
2022/03/04 05:01:52;;;;;;;33.72;17.55;;;;;;;-4.84;90.46;102113.25;5076405;28;20032;-86
2022/03/04 05:04:17;;;;;;;31.98;17.95;;;;;;;-4.87;89.88;102114.13;5077617;28;20032;-84
2022/03/04 05:06:43;;;;;;;33.90;18.02;;;;;;;-4.90;89.40;102114.13;5044703;28;20037;-78
2022/03/04 05:09:08;;;;;;;33.30;17.35;;;;;;;-4.94;88.71;102120.25;5078551;28;20067;-83
2022/03/04 05:11:34;;;;;;;40.35;18.83;;;;;;;-4.97;88.97;102126.31;5076142;28;20037;-84
2022/03/04 05:13:59;;;;;;;36.42;18.25;;;;;;;-5.00;89.02;102123.72;5075529;28;20036;-82
2022/03/04 05:16:25;;;;;;;35.28;18.88;;;;;;;-5.00;89.33;102120.25;5075653;28;20032;-83
2022/03/04 05:18:50;;;;;;;34.58;17.90;;;;;;;-5.03;89.55;102121.16;5075869;28;20105;-84
2022/03/04 05:21:16;;;;;;;33.13;18.05;;;;;;;-5.05;89.45;102128.06;5075314;28;20028;-83
2022/03/04 05:23:59;;;;;;;34.13;18.85;;;;;;;-5.06;89.31;102121.16;5057830;28;20032;-84
2022/03/04 05:26:36;;;;;;;38.70;19.30;;;;;;;-5.05;88.76;102119.41;5075563;28;20040;-87
2022/03/04 05:29:04;;;;;;;34.25;17.75;;;;;;;-5.08;88.84;102124.63;5075562;28;20043;-84
2022/03/04 05:31:30;;;;;;;37.60;18.73;;;;;;;-5.10;89.40;102122.03;5058101;28;20058;-83
2022/03/04 05:33:56;;;;;;;36.22;18.20;;;;;;;-5.13;89.55;102122.91;5075237;28;20029;-84
2022/03/04 05:36:22;;;;;;;34.92;18.50;;;;;;;-5.15;89.64;102126.38;5057478;28;20089;-85
2022/03/04 05:38:48;;;;;;;43.78;20.30;;;;;;;-5.11;89.22;102129.84;5075294;28;20029;-79
2022/03/04 05:41:15;;;;;;;40.38;20.35;;;;;;;-5.12;90.20;102128.94;5075228;28;20033;-85
2022/03/04 05:43:41;;;;;;;35.30;18.27;;;;;;;-5.12;89.84;102134.13;5075242;28;20036;-86
2022/03/04 05:46:06;;;;;;;37.38;20.83;;;;;;;-5.09;90.33;102139.34;5075629;28;20162;-83
2022/03/04 05:48:32;;;;;;;38.20;18.70;;;;;;;-5.05;90.57;102138.44;5075357;28;20484;-85
2022/03/04 05:50:57;;;;;;;40.95;18.92;;;;;;;-5.05;90.21;102135.84;5057279;28;20033;-86
2022/03/04 05:53:22;;;;;;;34.70;18.13;;;;;;;-5.09;89.43;102131.56;5075076;28;20060;-85
2022/03/04 05:55:48;;;;;;;33.00;17.83;;;;;;;-5.12;88.79;102134.13;5075133;28;20120;-80
2022/03/04 05:58:14;;;;;;;33.17;17.85;;;;;;;-5.18;88.72;102135.06;5057081;28;20037;-85
2022/03/04 06:00:39;;;;;;;34.38;17.23;;;;;;;-5.20;88.27;102141.97;5057693;28;20035;-85
2022/03/04 06:03:06;;;;;;;34.40;17.90;;;;;;;-5.24;88.04;102139.41;5058059;28;20036;-85
2022/03/04 06:05:31;;;;;;;34.13;17.35;;;;;;;-5.26;88.00;102148.94;5077334;28;20406;-84
2022/03/04 06:07:57;;;;;;;34.53;18.45;;;;;;;-5.30;87.87;102145.47;5076225;28;20453;-85
2022/03/04 06:10:23;;;;;;;30.70;17.45;;;;;;;-5.33;87.69;102153.25;5074944;28;20119;-85
2022/03/04 06:12:48;;;;;;;32.75;17.25;;;;;;;-5.35;88.05;102152.41;5074821;28;20460;-83
2022/03/04 06:15:13;;;;;;;39.38;19.98;;;;;;;-5.35;87.99;102147.22;5075182;28;20040;-83
2022/03/04 06:17:45;;;;;;;37.70;19.15;;;;;;;-5.36;88.62;102154.16;5075780;28;20384;-85
2022/03/04 06:20:11;;;;;;;33.72;18.20;;;;;;;-5.35;88.78;102160.19;5075521;28;20046;-85
2022/03/04 06:22:36;;;;;;;35.22;17.92;;;;;;;-5.36;89.23;102151.56;5075743;28;20174;-85
2022/03/04 06:25:02;;;;;;;38.38;18.58;;;;;;;-5.34;89.08;102152.41;5075482;28;20377;-87
2022/03/04 06:27:28;;;;;;;36.55;19.38;;;;;;;-5.33;89.60;102158.44;5076290;28;20112;-84
2022/03/04 06:29:53;;;;;;;38.00;19.55;;;;;;;-5.33;89.72;102154.16;5057464;28;20234;-81
2022/03/04 06:32:18;;;;;;;36.75;20.00;;;;;;;-5.30;90.23;102163.63;5074478;28;20067;-86
2022/03/04 06:34:44;;;;;;;36.70;19.00;;;;;;;-5.29;90.23;102156.72;5056604;28;20047;-86
2022/03/04 06:37:11;;;;;;;34.28;18.70;;;;;;;-5.22;90.22;102171.41;5074156;28;20441;-83
2022/03/04 06:39:37;;;;;;;38.55;19.08;;;;;;;-5.18;90.29;102173.09;5074253;28;20157;-84
2022/03/04 06:42:03;;;;;;;35.03;19.23;;;;;;;-5.14;90.12;102167.88;5073995;28;20032;-83
2022/03/04 06:44:28;;;;;;;45.90;21.48;;;;;;;-5.07;90.47;102168.75;5074251;28;20102;-83
2022/03/04 06:46:53;;;;;;;50.67;22.17;;;;;;;-5.00;90.28;102185.16;5073622;28;20491;-80
2022/03/04 06:49:19;;;;;;;39.78;20.33;;;;;;;-4.98;90.59;102186.88;5073486;28;20479;-82
2022/03/04 06:51:44;;;;;;;38.15;20.25;;;;;;;-4.95;90.85;102183.41;5073828;28;20035;-82
2022/03/04 06:54:09;;;;;;;39.30;19.20;;;;;;;-4.94;90.77;102181.66;5056080;28;20423;-83
2022/03/04 06:56:35;;;;;;;34.08;18.58;;;;;;;-4.93;90.65;102188.59;5055919;28;20071;-83
2022/03/04 06:59:00;;;;;;;38.38;19.20;;;;;;;-4.92;90.38;102188.59;5073810;28;20037;-84
2022/03/04 07:01:26;;;;;;;37.00;19.10;;;;;;;-4.87;90.75;102191.16;5073686;28;20372;-85
2022/03/04 07:03:51;;;;;;;40.28;19.52;;;;;;;-4.83;90.46;102190.28;5073759;28;20037;-84
2022/03/04 07:06:18;;;;;;;40.47;20.75;;;;;;;-4.75;90.87;102192.84;5073132;28;20433;-85
2022/03/04 07:08:43;;;;;;;45.65;23.20;;;;;;;-4.71;91.05;102192.81;5055541;28;20044;-84
2022/03/04 07:11:09;;;;;;;41.63;22.23;;;;;;;-4.61;91.44;102199.69;5072982;28;20039;-80
2022/03/04 07:13:34;;;;;;;47.30;20.83;;;;;;;-4.51;91.71;102197.91;5073709;28;20028;-86
2022/03/04 07:16:01;;;;;;;44.13;21.38;;;;;;;-4.41;91.96;102198.69;5073573;28;20051;-86
2022/03/04 07:18:29;;;;;;;44.28;22.60;;;;;;;-4.28;92.55;102196.91;5073208;28;20024;-83
2022/03/04 07:20:56;;;;;;;36.50;20.17;;;;;;;-4.18;92.76;102197.66;5074149;28;20482;-84
2022/03/04 07:23:22;;;;;;;39.65;21.70;;;;;;;-4.08;92.63;102202.78;5073305;28;20138;-87
2022/03/04 07:25:47;;;;;;;39.17;20.38;;;;;;;-3.95;93.02;102206.16;5073474;28;20214;-86
2022/03/04 07:28:13;;;;;;;41.00;21.90;;;;;;;-3.81;92.78;102205.19;5073765;28;20039;-86
2022/03/04 07:30:38;;;;;;;36.60;21.60;;;;;;;-3.68;92.53;102201.59;5055941;28;20055;-85
2022/03/04 07:33:04;;;;;;;43.53;22.02;;;;;;;-3.51;93.04;102196.22;5074151;28;20037;-85
2022/03/04 07:35:30;;;;;;;45.28;23.33;;;;;;;-3.35;92.93;102204.75;5055724;28;20485;-84
2022/03/04 07:37:55;;;;;;;44.90;24.10;;;;;;;-3.19;92.89;102195.88;5073531;28;20036;-84
2022/03/04 07:40:20;;;;;;;44.70;23.63;;;;;;;-2.99;93.18;102202.59;5055747;28;20024;-85
2022/03/04 07:42:46;;;;;;;42.13;21.98;;;;;;;-2.81;93.25;102203.25;5073214;28;20028;-83
2022/03/04 07:45:12;;;;;;;43.70;22.77;;;;;;;-2.65;93.32;102196.97;5073146;28;20029;-83
2022/03/04 07:47:39;;;;;;;49.97;23.67;;;;;;;-2.49;93.48;102206.28;5038854;28;20447;-85
2022/03/04 07:50:07;;;;;;;43.65;22.05;;;;;;;-2.33;93.79;102198.22;5073324;28;20329;-85
2022/03/04 07:52:33;;;;;;;42.33;23.05;;;;;;;-2.15;93.44;102203.19;5073971;28;20036;-85
2022/03/04 07:55:01;;;;;;;46.38;23.35;;;;;;;-1.98;93.26;102209.88;5074205;28;20037;-83
2022/03/04 07:57:27;;;;;;;39.67;22.05;;;;;;;-1.80;93.39;102208.72;5074475;28;20024;-83
2022/03/04 07:59:53;;;;;;;42.15;22.02;;;;;;;-1.61;93.55;102206.66;5075905;28;20032;-83
2022/03/04 08:02:18;;;;;;;41.40;22.45;;;;;;;-1.42;93.90;102210.66;5073680;28;20082;-85
2022/03/04 08:04:45;;;;;;;39.05;22.38;;;;;;;-1.24;94.15;102205.94;5073098;28;20043;-82
2022/03/04 08:07:10;;;;;;;43.35;23.42;;;;;;;-1.03;94.04;102215.13;5038870;28;20071;-78
2022/03/04 08:09:36;;;;;;;39.15;22.40;;;;;;;-0.83;93.91;102217.34;5073156;28;20108;-83
2022/03/04 08:12:02;;;;;;;36.40;20.67;;;;;;;-0.65;93.63;102217.84;5073627;28;20112;-79
2022/03/04 08:14:27;;;;;;;36.90;21.33;;;;;;;-0.46;92.89;102219.16;5054922;28;20115;-79
2022/03/04 08:16:53;;;;;;;33.50;20.73;;;;;;;-0.28;92.12;102217.88;5072593;28;20653;-81
2022/03/04 08:19:18;;;;;;;39.03;21.05;;;;;;;-0.05;92.11;102212.09;5054820;28;20081;-77
2022/03/04 08:21:45;;;;;;;41.30;22.55;;;;;;;0.17;92.37;102222.91;5073100;28;20056;-79
2022/03/04 08:24:11;;;;;;;33.10;20.45;;;;;;;0.41;91.47;102220.56;5072973;28;20056;-84
2022/03/04 08:26:38;;;;;;;33.30;19.58;;;;;;;0.63;89.55;102220.88;5073173;28;20539;-80
2022/03/04 08:29:06;;;;;;;32.75;19.85;;;;;;;0.90;88.35;102223.63;5074531;28;20033;-77
2022/03/04 08:31:32;;;;;;;39.15;19.65;;;;;;;1.17;85.05;102227.22;5058949;28;20041;-78
2022/03/04 08:33:57;;;;;;;31.23;18.92;;;;;;;1.41;80.34;102233.50;5076722;28;20387;-77
2022/03/04 08:36:24;;;;;;;31.25;19.13;;;;;;;1.71;77.01;102224.75;5077096;28;20453;-78
2022/03/04 08:38:49;;;;;;;32.03;18.02;;;;;;;1.98;74.53;102227.41;5076919;28;20035;-78
2022/03/04 08:41:15;;;;;;;28.00;17.90;;;;;;;2.18;72.49;102227.63;5076372;28;20036;-79
2022/03/04 08:43:40;;;;;;;27.45;17.35;;;;;;;2.34;71.30;102221.84;5076507;28;20033;-78
2022/03/04 08:46:07;;;;;;;32.92;17.67;;;;;;;2.53;70.94;102220.31;5076436;28;20033;-79
2022/03/04 08:48:32;;;;;;;28.40;17.25;;;;;;;2.85;69.69;102235.84;5076357;28;20153;-79
2022/03/04 08:50:58;;;;;;;28.73;17.90;;;;;;;3.05;68.13;102228.13;5076594;28;20115;-80
2022/03/04 08:53:23;;;;;;;29.23;18.17;;;;;;;3.35;67.96;102233.16;5076048;28;20039;-82
2022/03/04 08:55:50;;;;;;;28.13;17.20;;;;;;;3.60;65.46;102226.91;5076498;28;20039;-79
2022/03/04 08:58:16;;;;;;;33.35;18.35;;;;;;;3.96;64.24;102232.53;5058179;28;20366;-77
2022/03/04 09:00:41;;;;;;;31.17;19.27;;;;;;;4.57;62.31;102229.09;5076079;28;20036;-85
2022/03/04 09:03:07;;;;;;;33.85;18.77;;;;;;;5.53;60.06;102224.81;5076151;28;20461;-84
2022/03/04 09:05:32;;;;;;;26.73;17.98;;;;;;;6.37;55.49;102229.56;5075875;28;20453;-81
2022/03/04 09:07:58;;;;;;;26.60;18.25;;;;;;;7.92;51.53;102227.44;5075988;28;20037;-79
2022/03/04 09:10:23;;;;;;;27.50;18.48;;;;;;;9.44;47.06;102225.41;5075894;28;20042;-82
2022/03/04 09:12:48;;;;;;;26.70;17.77;;;;;;;9.98;44.43;102223.72;5076654;28;20047;-87
2022/03/04 09:15:14;;;;;;;24.92;17.67;;;;;;;11.46;41.13;102232.22;5075951;28;20074;-83
2022/03/04 09:17:40;;;;;;;29.55;18.08;;;;;;;11.89;39.95;102233.56;5075986;28;20051;-81
2022/03/04 09:20:06;;;;;;;30.00;17.88;;;;;;;12.74;37.81;102227.19;5075774;28;20472;-80
2022/03/04 09:22:32;;;;;;;25.80;17.52;;;;;;;12.79;36.55;102220.50;5076172;28;20024;-85
2022/03/04 09:24:57;;;;;;;26.08;18.48;;;;;;;12.23;37.33;102226.59;5075987;28;20381;-83
2022/03/04 09:27:23;;;;;;;26.25;17.40;;;;;;;12.07;37.24;102229.53;5075790;28;20048;-84
2022/03/04 09:29:48;;;;;;;28.77;18.38;;;;;;;12.52;36.61;102220.81;5075863;28;20036;-81
2022/03/04 09:32:14;;;;;;;25.65;17.35;;;;;;;13.08;36.77;102230.72;5057969;28;20037;-83
2022/03/04 09:34:40;;;;;;;25.70;16.92;;;;;;;13.63;35.26;102225.47;5076035;28;20160;-84
2022/03/04 09:37:05;;;;;;;27.42;17.48;;;;;;;13.66;34.81;102229.69;5075938;28;20166;-83
2022/03/04 09:39:31;;;;;;;24.55;17.05;;;;;;;13.48;35.27;102226.69;5074749;28;20029;-82
2022/03/04 09:41:56;;;;;;;24.70;17.35;;;;;;;13.86;33.82;102228.91;5056627;28;20483;-80
2022/03/04 09:44:21;;;;;;;26.63;17.95;;;;;;;13.35;34.67;102233.06;5075534;28;20032;-84
2022/03/04 09:46:47;;;;;;;27.40;17.83;;;;;;;13.98;33.92;102234.25;5075336;28;20495;-87
2022/03/04 09:49:17;;;;;;;24.27;17.17;;;;;;;14.28;34.37;102231.66;5075371;28;20039;-87
2022/03/04 09:51:43;;;;;;;25.77;17.95;;;;;;;14.13;33.92;102232.13;5057804;28;20028;-81
2022/03/04 09:54:08;;;;;;;26.75;17.65;;;;;;;13.71;33.89;102243.56;5075116;28;20028;-86
2022/03/04 09:56:34;;;;;;;27.90;18.15;;;;;;;13.67;33.97;102237.59;5075369;28;20468;-79
2022/03/04 09:59:00;;;;;;;27.33;17.55;;;;;;;14.09;34.40;102234.19;5060189;28;20033;-85
2022/03/04 10:01:25;;;;;;;27.33;17.02;;;;;;;13.51;33.77;102245.16;5078131;28;20361;-84
2022/03/04 10:03:53;;;;;;;26.92;18.35;;;;;;;13.01;35.34;102237.53;5076018;28;20043;-81
2022/03/04 10:06:21;;;;;;;26.77;18.05;;;;;;;13.19;35.68;102235.22;5075272;28;20067;-79
2022/03/04 10:08:50;;;;;;;26.88;17.45;;;;;;;13.89;34.23;102225.97;5056941;28;20502;-76
2022/03/04 10:11:29;;;;;;;29.33;18.27;;;;;;;13.42;34.97;102221.84;5074637;28;20032;-77
2022/03/04 10:13:56;;;;;;;28.67;18.17;;;;;;;13.82;34.75;102222.13;5074919;28;20063;-77
2022/03/04 10:16:30;;;;;;;24.35;17.80;;;;;;;14.11;33.83;102216.19;5074766;28;20032;-80
2022/03/04 10:19:19;;;;;;;26.02;17.55;;;;;;;13.89;32.69;102220.63;5074756;28;20059;-82
2022/03/04 10:21:50;;;;;;;23.13;16.88;;;;;;;14.27;33.57;102221.94;5075172;28;20033;-83
2022/03/04 10:24:17;;;;;;;;;;;;;;;13.52;33.85;102229.00;5074470;28;20056;-86
2022/03/04 10:26:42;;;;;;;23.17;16.92;;;;;;;14.50;32.73;102220.97;5074955;28;19912;-85
2022/03/04 10:29:22;;;;;;;25.42;16.65;;;;;;;15.04;31.56;102224.38;5074609;28;20126;-85
2022/03/04 10:32:09;;;;;;;25.42;17.80;;;;;;;15.14;31.76;102230.63;5074468;28;20041;-85
2022/03/04 10:34:53;;;;;;;22.67;17.42;;;;;;;14.92;32.42;102229.81;5074178;28;20032;-85
2022/03/04 10:37:22;;;;;;;25.63;17.08;;;;;;;14.87;32.05;102224.03;5074349;28;20067;-85
2022/03/04 10:40:03;;;;;;;26.08;17.80;;;;;;;15.47;31.91;102225.94;5074696;28;20024;-84
2022/03/04 10:42:46;;;;;;;30.65;18.55;;;;;;;15.33;31.04;102229.84;5076176;28;20036;-86
2022/03/04 10:45:19;;;;;;;23.70;17.23;;;;;;;15.30;31.37;102230.09;5075070;28;20036;-83
2022/03/04 10:47:49;;;;;;;24.88;17.80;;;;;;;15.13;31.45;102228.94;5074559;28;20032;-82
2022/03/04 10:50:17;;;;;;;27.63;18.13;;;;;;;15.48;31.84;102224.94;5074465;28;20115;-84
2022/03/04 10:52:54;;;;;;;22.67;17.27;;;;;;;15.22;31.99;102219.22;5074046;28;20464;-84
2022/03/04 10:55:31;;;;;;;23.52;17.55;;;;;;;15.64;32.06;102213.69;5074724;28;20025;-84
2022/03/04 10:57:58;;;;;;;23.27;17.17;;;;;;;16.44;31.04;102219.78;5074125;28;20063;-77
2022/03/04 11:00:25;;;;;;;24.02;17.30;;;;;;;15.76;30.23;102212.56;5073856;28;20032;-79
2022/03/04 11:02:51;;;;;;;21.00;16.75;;;;;;;15.44;32.07;102219.00;5073721;28;20055;-82
2022/03/04 11:05:18;;;;;;;24.30;17.65;;;;;;;15.14;32.24;102225.28;5073650;28;20024;-83